Richmond International Airport (RIC/KRIC)



Flight Aircraft Arriving
CPX7439
KTPA - Tampa International Airport
United StatesFlorida Tampa, Florida
CPX7457
TJSJ - Luis Munoz Marin International Airport
Puerto Rico San Juan, Puerto Rico
Flight Aircraft Departing
CPX7406
KAFW - Fort Worth Alliance Airport
United StatesTexas Fort Worth, Texas
CPX7442
KTPA - Tampa International Airport
United StatesFlorida Tampa, Florida


Airport Information
Location: Richmond, Virginia
Coordinates: 37.5052 / -77.3197
Field Elevation: 166ft
Longest Runway: 9,033ft
ILS Approaches: YES
Landing Fees: $1,964 per flight
Jet A Price: $0.33/lbs
Charts:

Current Weather
METAR: KRIC 160854Z 00000KT 10SM CLR 17/16 A2982 RMK AO2 SLP102 T01720161 56016
TAF: KRIC 160530Z 1606/1706 19008KT P6SM SKC FM161500 20012G20KT P6SM SCT250 FM161800 22013G22KT P6SM VCSH SCT050 FM162000 30015G30KT 3SM SHRA BR OVC030 FM162200 33011G18KT P6SM BKN050 FM170200 31007KT P6SM SKC

Recent Arrivals
Date Flight Type Depart
08/29/2021 CPX7406 B752 Fort Worth Alliance Airport (KAFW)
08/20/2021 CPX7442 B752 Tampa Intl (KTPA)
05/05/2021 CPX7442 B752 Tampa Intl (KTPA)
04/13/2021 CPX7442 B738 Tampa Intl (KTPA)
Recent Departures
Date Flight Type Arrive
09/22/2021 CPX7457 B752 Luis Munoz Marin Intl (TJSJ)
09/01/2021 CPX7439 B752 Tampa Intl (KTPA)
05/06/2021 CPX7457 B752 Luis Munoz Marin Intl (TJSJ)
04/16/2021 CPX7457 B738 Luis Munoz Marin Intl (TJSJ)